• Join FlightAware (Why Join?)
  • Login
  • US Flag 
11:37AM EST


 

Airport Tracker/Info


-or-


 

Live Flight TrackerFlight Track Log ✈ FLG3667 ✈ 06-May-2013 ✈ KDTW - KGRR

Flight Track Log - Related Links

Times and Time Zones

All times are in EDT time to prevent confusion due to time zone crossing. See the FLG3667 flight status page for this flight to view local times or setup timezone preferences in your user account.

Time Position Orientation Groundspeed Altitude Reporting Facility
EDT Latitude Longitude Course Direction KTS MPH feet Rate Location/Type
04:31PM 42.2292 -83.3369 285° West 150 173 1,200  Level Cleveland Center
04:32PM 42.2722 -83.3697 331° Northwest 223 257 2,800 1,355 Climbing Cleveland Center
04:33PM 42.3206 -83.4392 313° West 269 310 4,000 595 Climbing Cleveland Center
04:34PM 42.3102 -83.7640 294° West  Level FlightAware Approximate
04:34PM 42.3325 -83.5408 279° West 275 316 4,000  Level Cleveland Center
04:35PM 42.3400 -83.8663 285° West  Level FlightAware Approximate
04:36PM 42.3816 -83.7122 294° West  Level Estimated
04:36PM 42.3612 -83.9728 285° West  Level FlightAware Approximate
04:43PM 42.4508 -84.6109 291° West  Level FlightAware Approximate
04:44PM 42.4972 -84.7082 294° West  Level FlightAware Approximate
04:45PM 42.5361 -84.8248 294° West  Level FlightAware Approximate
04:46PM 42.5775 -84.9399 297° West  Level FlightAware Approximate
04:46PM 42.6753 -84.9072 340° North 387 445 10,000  Level Chicago Center
04:47PM 42.6229 -85.0519 294° West  Level FlightAware Approximate
04:47PM 42.7117 -85.0508 289° West 333 383 9,900  Level Chicago Center
04:48PM 42.6618 -85.1687 294° West  Level FlightAware Approximate
04:48PM 42.7267 -85.1564 281° West 290 334 8,400  Level Chicago Center
04:49PM 42.7008 -85.2856 294° West  Level FlightAware Approximate
04:49PM 42.7422 -85.2617 281° West 285 328 6,800  Level Chicago Center
04:50PM 42.7481 -85.3962 304° West  Level FlightAware Approximate
04:50PM 42.7594 -85.3633 283° West 281 323 5,600  Level Chicago Center
04:51PM 42.8031 -85.4932 340° North  Level FlightAware Approximate
04:51PM 42.7747 -85.4675 281° West 280 322 4,900  Level Chicago Center
04:53PM 42.8089 -85.6558 284° West 228 262 3,500 -738 Descending Chicago Center
04:54PM 42.8522 -85.6508 North 182 209 2,600 -871 Descending Chicago Center
04:55PM 42.8708 -85.5986 64° Northeast 164 189 1,700 -871 Descending Chicago Center